createdAt,value
2022-11-15T00:00:40.232Z,4.20
2022-11-15T00:03:44.407Z,4.20
2022-11-15T00:06:48.907Z,4.23
2022-11-15T00:09:53.593Z,4.50
2022-11-15T00:12:58.154Z,4.33
2022-11-15T00:16:03.557Z,3.80
2022-11-15T00:19:07.892Z,3.57
2022-11-15T00:22:12.399Z,3.60
2022-11-15T00:25:16.983Z,3.50
2022-11-15T00:28:21.563Z,3.70
2022-11-15T00:31:26.005Z,3.90
2022-11-15T00:34:30.480Z,3.30
2022-11-15T00:37:34.868Z,3.47
2022-11-15T00:40:39.310Z,3.50
2022-11-15T00:43:44.697Z,3.27
2022-11-15T00:46:49.185Z,3.40
2022-11-15T00:49:53.519Z,3.10
2022-11-15T00:52:57.763Z,3.43
2022-11-15T00:56:02.278Z,3.63
2022-11-15T00:59:06.778Z,3.27
2022-11-15T01:02:11.215Z,3.07
2022-11-15T01:05:15.851Z,3.13
2022-11-15T01:08:20.272Z,3.60
2022-11-15T01:11:24.549Z,2.90
2022-11-15T01:14:29.134Z,3.07
2022-11-15T01:17:33.713Z,3.30
2022-11-15T01:20:44.579Z,3.20
2022-11-15T01:23:49.170Z,3.20
2022-11-15T01:26:53.512Z,3.05
2022-11-15T01:29:57.680Z,2.87
2022-11-15T01:33:02.200Z,3.03
2022-11-15T01:36:08.610Z,2.87
2022-11-15T01:39:12.804Z,2.77
2022-11-15T01:42:19.017Z,3.33
2022-11-15T01:45:23.493Z,2.80
2022-11-15T01:48:35.078Z,2.17
2022-11-15T01:51:39.913Z,2.60
2022-11-15T01:54:44.748Z,2.85
2022-11-15T01:57:54.698Z,2.80
2022-11-15T02:00:58.800Z,2.70
2022-11-15T02:04:07.241Z,2.65
2022-11-15T02:07:13.659Z,2.50
2022-11-15T02:10:23.311Z,3.40
2022-11-15T02:13:27.221Z,3.33
2022-11-15T02:16:59.710Z,2.90
2022-11-15T02:20:13.034Z,3.00
2022-11-15T02:23:32.627Z,3.10
2022-11-15T02:27:06.722Z,4.07
2022-11-15T02:30:30.634Z,3.30
2022-11-15T02:33:49.169Z,3.73
2022-11-15T02:37:15.219Z,3.05
2022-11-15T02:40:34.951Z,3.30
2022-11-15T02:43:58.910Z,3.27
2022-11-15T02:47:16.144Z,3.70
2022-11-15T02:50:23.230Z,4.00
2022-11-15T02:53:28.426Z,4.23
2022-11-15T02:56:32.956Z,3.97
2022-11-15T02:59:45.887Z,3.30
2022-11-15T03:02:59.968Z,3.70
2022-11-15T03:06:35.922Z,4.07
2022-11-15T03:10:11.428Z,3.90
2022-11-15T03:13:49.827Z,3.80
2022-11-15T03:17:17.114Z,4.23
2022-11-15T03:20:21.378Z,4.20
2022-11-15T03:23:27.306Z,4.18
2022-11-15T03:26:35.486Z,3.65
2022-11-15T03:29:51.573Z,4.25
2022-11-15T03:32:58.835Z,4.30
2022-11-15T03:36:03.671Z,4.00
2022-11-15T03:39:09.581Z,4.13
2022-11-15T03:42:34.797Z,4.38
2022-11-15T03:45:47.739Z,4.53
2022-11-15T03:48:57.763Z,4.30
2022-11-15T03:52:04.814Z,4.40
2022-11-15T03:55:14.094Z,5.07
2022-11-15T03:58:18.566Z,4.13
2022-11-15T04:01:23.137Z,4.40
2022-11-15T04:04:27.616Z,4.30
2022-11-15T04:07:32.321Z,4.40
2022-11-15T04:10:36.873Z,5.25
2022-11-15T04:13:41.099Z,5.28
2022-11-15T04:16:45.681Z,4.07
2022-11-15T04:20:08.506Z,5.07
2022-11-15T04:23:33.205Z,4.23
2022-11-15T04:26:37.926Z,4.80
2022-11-15T04:29:42.993Z,4.45
2022-11-15T04:32:47.323Z,4.80
2022-11-15T04:36:10.848Z,3.90
2022-11-15T04:39:15.082Z,4.25
2022-11-15T04:42:19.419Z,4.57
2022-11-15T04:45:24.178Z,5.50
2022-11-15T04:48:28.454Z,4.95
2022-11-15T04:51:32.818Z,5.22
2022-11-15T04:54:37.250Z,4.40
2022-11-15T04:57:41.653Z,3.75
2022-11-15T05:00:46.225Z,4.93
2022-11-15T05:04:08.883Z,4.57
2022-11-15T05:07:13.165Z,4.78
2022-11-15T05:10:17.944Z,4.25
2022-11-15T05:13:22.337Z,4.45
2022-11-15T05:16:26.859Z,4.10
2022-11-15T05:19:31.571Z,4.63
2022-11-15T05:22:36.037Z,4.57
2022-11-15T05:25:40.336Z,4.30
2022-11-15T05:28:44.954Z,4.28
2022-11-15T05:31:49.063Z,4.27
2022-11-15T05:34:53.648Z,4.35
2022-11-15T05:37:58.617Z,4.38
2022-11-15T05:41:04.233Z,3.78
2022-11-15T05:44:12.513Z,4.45
2022-11-15T05:47:24.602Z,4.47
2022-11-15T05:50:29.200Z,5.60
2022-11-15T05:53:34.342Z,4.85
2022-11-15T05:56:39.175Z,4.40
2022-11-15T05:59:44.586Z,4.43
2022-11-15T06:02:48.811Z,4.43
2022-11-15T06:05:53.073Z,4.68
2022-11-15T06:08:57.527Z,4.35
2022-11-15T06:12:01.947Z,5.17
2022-11-15T06:15:06.910Z,4.13
2022-11-15T06:18:11.408Z,4.40
2022-11-15T06:21:15.932Z,4.80
2022-11-15T06:24:20.455Z,4.27
2022-11-15T06:27:25.084Z,4.18
2022-11-15T06:30:29.554Z,4.70
2022-11-15T06:33:34.546Z,4.60
2022-11-15T06:36:39.000Z,4.00
2022-11-15T06:39:43.244Z,4.07
2022-11-15T06:42:47.887Z,4.10
2022-11-15T06:45:52.186Z,4.40
2022-11-15T06:48:56.636Z,3.80
2022-11-15T06:52:00.905Z,4.38
2022-11-15T06:55:05.897Z,4.30
2022-11-15T06:58:10.739Z,4.27
2022-11-15T07:01:15.046Z,4.50
2022-11-15T07:04:19.375Z,3.83
2022-11-15T07:07:23.605Z,4.03
2022-11-15T07:10:28.774Z,3.97
2022-11-15T07:13:35.264Z,4.10
2022-11-15T07:16:40.577Z,4.00
2022-11-15T07:19:44.844Z,4.20
2022-11-15T07:22:49.291Z,3.80
2022-11-15T07:25:53.443Z,4.07
2022-11-15T07:28:57.911Z,4.25
2022-11-15T07:32:02.542Z,3.40
2022-11-15T07:35:07.263Z,3.90
2022-11-15T07:38:11.666Z,3.85
2022-11-15T07:41:15.973Z,3.50
2022-11-15T07:44:20.265Z,3.58
2022-11-15T07:47:24.706Z,3.70
2022-11-15T07:50:30.904Z,3.80
2022-11-15T07:53:35.129Z,3.50
2022-11-15T07:56:40.091Z,3.90
2022-11-15T07:59:44.686Z,3.20
2022-11-15T08:02:49.180Z,3.70
2022-11-15T08:05:53.956Z,3.13
2022-11-15T08:08:58.800Z,3.20
2022-11-15T08:12:02.809Z,3.58
2022-11-15T08:15:07.659Z,3.78
2022-11-15T08:18:14.851Z,3.70
2022-11-15T08:21:21.169Z,3.65
2022-11-15T08:24:25.283Z,2.80
2022-11-15T08:27:29.790Z,3.15
2022-11-15T08:30:42.616Z,3.60
2022-11-15T08:33:47.380Z,3.08
2022-11-15T08:36:51.649Z,2.70
2022-11-15T08:39:55.995Z,2.72
2022-11-15T08:43:03.369Z,2.30
2022-11-15T08:46:12.862Z,2.55
2022-11-15T08:49:17.275Z,2.40
2022-11-15T08:52:21.801Z,2.10
2022-11-15T08:55:26.013Z,2.35
2022-11-15T08:58:30.687Z,2.35
2022-11-15T09:01:35.250Z,2.20
2022-11-15T09:04:42.144Z,2.33
2022-11-15T09:07:46.232Z,2.10
2022-11-15T09:10:50.726Z,2.10
2022-11-15T09:13:55.912Z,1.92
2022-11-15T09:17:00.678Z,2.10
2022-11-15T09:20:06.302Z,1.98
2022-11-15T09:23:11.192Z,1.85
2022-11-15T09:26:15.672Z,1.88
2022-11-15T09:29:22.631Z,1.77
2022-11-15T09:32:35.054Z,1.60
2022-11-15T09:35:43.416Z,1.80
2022-11-15T09:38:48.337Z,1.80
2022-11-15T09:42:26.454Z,1.63
2022-11-15T09:45:58.970Z,2.22
2022-11-15T09:49:03.880Z,1.77
2022-11-15T09:51:52.271Z,2.00
2022-11-15T09:54:56.172Z,1.70
2022-11-15T09:57:45.294Z,2.00
2022-11-15T10:00:46.563Z,1.80
2022-11-15T10:03:42.871Z,1.73
2022-11-15T10:06:28.882Z,1.90
2022-11-15T10:09:50.536Z,2.22
2022-11-15T10:12:36.651Z,1.90
2022-11-15T10:15:23.959Z,2.00
2022-11-15T10:18:20.041Z,1.55
2022-11-15T10:21:47.700Z,1.55
2022-11-15T10:24:41.548Z,1.80
2022-11-15T10:27:26.894Z,1.70
2022-11-15T10:30:15.463Z,1.58
2022-11-15T10:33:26.187Z,1.70
2022-11-15T10:36:16.008Z,1.80
2022-11-15T10:39:01.987Z,1.90
2022-11-15T10:41:47.781Z,1.80
2022-11-15T10:44:44.051Z,1.60
2022-11-15T10:47:38.959Z,1.23
2022-11-15T10:50:32.317Z,1.27
2022-11-15T10:53:37.570Z,1.38
2022-11-15T10:56:26.254Z,1.60
2022-11-15T10:59:20.559Z,1.67
2022-11-15T11:02:30.467Z,1.75
2022-11-15T11:05:41.647Z,1.70
2022-11-15T11:08:29.039Z,1.40
2022-11-15T11:11:14.554Z,1.40
2022-11-15T11:14:13.752Z,1.50
2022-11-15T11:17:18.999Z,1.75
2022-11-15T11:20:24.826Z,1.80
2022-11-15T11:23:42.694Z,1.60
2022-11-15T11:26:40.260Z,1.33
2022-11-15T11:29:51.844Z,1.35
2022-11-15T11:32:53.894Z,1.48
2022-11-15T11:36:00.319Z,1.20
2022-11-15T11:39:12.396Z,1.40
2022-11-15T11:42:16.572Z,1.55
2022-11-15T11:45:23.458Z,1.20
2022-11-15T11:48:22.239Z,1.92
2022-11-15T11:51:37.165Z,1.25
2022-11-15T11:54:38.618Z,1.30
2022-11-15T11:57:44.879Z,1.40
2022-11-15T12:00:35.578Z,1.33
2022-11-15T12:03:45.308Z,1.27
2022-11-15T12:06:41.470Z,1.15
2022-11-15T12:09:36.623Z,1.33
2022-11-15T12:12:45.389Z,1.30
2022-11-15T12:15:42.346Z,1.10
2022-11-15T12:18:30.446Z,1.00
2022-11-15T12:21:33.238Z,1.45
2022-11-15T12:25:02.666Z,1.40
2022-11-15T12:27:55.379Z,1.42
2022-11-15T12:30:44.675Z,1.48
2022-11-15T12:33:38.479Z,1.30
2022-11-15T12:36:24.289Z,1.30
2022-11-15T12:39:12.676Z,1.50
2022-11-15T12:41:58.115Z,1.08
2022-11-15T12:44:43.709Z,1.30
2022-11-15T12:47:29.873Z,1.30
2022-11-15T12:50:16.429Z,1.13
2022-11-15T12:53:26.124Z,1.20
2022-11-15T12:56:18.071Z,1.38
2022-11-15T12:59:03.521Z,1.40
2022-11-15T13:01:58.557Z,1.40
2022-11-15T13:04:50.104Z,1.45
2022-11-15T13:07:41.747Z,1.33
2022-11-15T13:10:28.154Z,1.20
2022-11-15T13:13:44.092Z,1.35
2022-11-15T13:16:30.459Z,1.50
2022-11-15T13:19:16.654Z,1.15
2022-11-15T13:22:28.233Z,1.20
2022-11-15T13:25:33.174Z,1.25
2022-11-15T13:28:22.083Z,1.35
2022-11-15T13:31:29.143Z,1.20
2022-11-15T13:34:49.966Z,1.15
2022-11-15T13:37:33.451Z,1.30
2022-11-15T13:40:31.522Z,1.30
2022-11-15T13:43:37.548Z,1.52
2022-11-15T13:46:24.607Z,1.30
2022-11-15T13:49:14.189Z,1.15
2022-11-15T13:52:05.602Z,1.30
2022-11-15T13:55:19.785Z,1.10
2022-11-15T13:58:09.711Z,1.20
2022-11-15T14:01:05.291Z,1.00
2022-11-15T14:04:01.669Z,1.67
2022-11-15T14:06:52.682Z,1.60
2022-11-15T14:09:40.978Z,1.95
2022-11-15T14:12:34.872Z,1.90
2022-11-15T14:15:36.902Z,2.80
2022-11-15T14:18:45.550Z,3.92
2022-11-15T14:21:31.450Z,4.43
2022-11-15T14:24:22.810Z,3.60
2022-11-15T14:27:41.519Z,3.97
2022-11-15T14:30:27.103Z,3.80
2022-11-15T14:33:38.381Z,4.63
2022-11-15T14:36:24.041Z,4.15
2022-11-15T14:39:10.238Z,4.10
2022-11-15T14:41:56.132Z,4.22
2022-11-15T14:44:45.748Z,3.85
2022-11-15T14:47:31.444Z,3.97
2022-11-15T14:50:19.976Z,4.68
2022-11-15T14:53:06.064Z,4.15
2022-11-15T14:55:51.536Z,3.50
2022-11-15T14:58:37.130Z,3.72
2022-11-15T15:01:27.179Z,4.00
2022-11-15T15:04:13.939Z,3.83
2022-11-15T15:07:01.609Z,3.97
2022-11-15T15:09:47.846Z,4.03
2022-11-15T15:12:34.076Z,2.90
2022-11-15T15:15:25.570Z,3.33
2022-11-15T15:18:12.378Z,3.42
2022-11-15T15:21:08.173Z,3.33
2022-11-15T15:23:57.349Z,3.35
2022-11-15T15:26:44.534Z,3.20
2022-11-15T15:29:30.113Z,3.00
2022-11-15T15:32:15.578Z,3.33
2022-11-15T15:35:01.803Z,3.15
2022-11-15T15:37:49.853Z,3.22
2022-11-15T15:40:35.966Z,2.65
2022-11-15T15:43:21.817Z,2.78
2022-11-15T15:46:16.929Z,2.67
2022-11-15T15:49:02.352Z,3.10
2022-11-15T15:51:47.959Z,3.25
2022-11-15T15:54:33.356Z,3.05
2022-11-15T15:57:19.534Z,2.92
2022-11-15T16:00:06.685Z,2.70
2022-11-15T16:02:58.018Z,3.25
2022-11-15T16:05:44.276Z,2.60
2022-11-15T16:08:42.522Z,2.53
2022-11-15T16:11:33.557Z,2.75
2022-11-15T16:14:19.214Z,2.33
2022-11-15T16:17:05.094Z,2.38
2022-11-15T16:19:50.849Z,2.35
2022-11-15T16:22:36.204Z,2.90
2022-11-15T16:25:21.602Z,2.47
2022-11-15T16:28:18.359Z,2.72
2022-11-15T16:31:11.615Z,2.55
2022-11-15T16:33:57.321Z,2.60
2022-11-15T16:36:42.715Z,2.60
2022-11-15T16:39:30.830Z,2.38
2022-11-15T16:42:16.544Z,2.60
2022-11-15T16:45:02.354Z,2.20
2022-11-15T16:47:47.845Z,2.10
2022-11-15T16:50:41.051Z,1.90
2022-11-15T16:53:28.150Z,2.50
2022-11-15T16:56:29.152Z,2.33
2022-11-15T16:59:17.820Z,2.22
2022-11-15T17:02:03.772Z,1.88
2022-11-15T17:04:49.156Z,2.05
2022-11-15T17:07:34.715Z,2.17
2022-11-15T17:10:22.000Z,2.20
2022-11-15T17:13:16.009Z,2.00
2022-11-15T17:16:20.053Z,1.88
2022-11-15T17:19:05.984Z,1.90
2022-11-15T17:21:51.465Z,1.75
2022-11-15T17:24:37.117Z,2.10
2022-11-15T17:27:23.796Z,1.90
2022-11-15T17:30:12.645Z,2.30
2022-11-15T17:32:58.219Z,1.80
2022-11-15T17:35:43.596Z,2.05
2022-11-15T17:38:30.045Z,1.80
2022-11-15T17:41:16.707Z,1.77
2022-11-15T17:44:03.716Z,1.88
2022-11-15T17:46:49.782Z,1.92
2022-11-15T17:49:39.435Z,1.80
2022-11-15T17:52:24.968Z,1.92
2022-11-15T17:55:10.864Z,1.65
2022-11-15T17:57:56.229Z,1.80
2022-11-15T18:00:41.654Z,1.55
2022-11-15T18:03:27.339Z,1.58
2022-11-15T18:06:13.347Z,1.60
2022-11-15T18:08:59.415Z,1.92
2022-11-15T18:11:50.539Z,1.50
2022-11-15T18:14:35.971Z,1.38
2022-11-15T18:17:21.834Z,1.85
2022-11-15T18:20:07.749Z,1.52
2022-11-15T18:22:54.468Z,1.80
2022-11-15T18:25:40.450Z,2.05
2022-11-15T18:28:37.385Z,1.50
2022-11-15T18:31:26.408Z,1.83
2022-11-15T18:34:12.271Z,1.67
2022-11-15T18:36:58.460Z,1.55
2022-11-15T18:39:44.226Z,1.80
2022-11-15T18:42:32.986Z,1.90
2022-11-15T18:45:23.021Z,1.75
2022-11-15T18:48:09.735Z,1.42
2022-11-15T18:51:10.743Z,1.75
2022-11-15T18:54:00.836Z,1.42
2022-11-15T18:56:47.091Z,1.38
2022-11-15T18:59:32.992Z,1.58
2022-11-15T19:02:18.576Z,1.50
2022-11-15T19:05:04.747Z,1.73
2022-11-15T19:07:50.442Z,1.60
2022-11-15T19:10:35.795Z,1.50
2022-11-15T19:13:21.278Z,1.45
2022-11-15T19:16:07.643Z,1.90
2022-11-15T19:18:58.302Z,2.30
2022-11-15T19:21:44.640Z,1.50
2022-11-15T19:24:30.636Z,1.58
2022-11-15T19:27:16.445Z,1.90
2022-11-15T19:30:02.097Z,1.27
2022-11-15T19:32:48.146Z,1.67
2022-11-15T19:35:34.203Z,1.95
2022-11-15T19:38:19.910Z,1.95
2022-11-15T19:41:07.700Z,1.50
2022-11-15T19:43:54.106Z,1.70
2022-11-15T19:46:40.725Z,1.75
2022-11-15T19:49:26.294Z,1.60
2022-11-15T19:52:11.701Z,1.30
2022-11-15T19:54:58.628Z,1.60
2022-11-15T19:57:44.797Z,1.38
2022-11-15T20:00:31.255Z,1.45
2022-11-15T20:03:17.851Z,1.50
2022-11-15T20:06:07.846Z,1.35
2022-11-15T20:08:53.684Z,1.70
2022-11-15T20:11:39.526Z,1.60
2022-11-15T20:14:25.651Z,1.40
2022-11-15T20:17:11.579Z,1.33
2022-11-15T20:19:58.527Z,1.50
2022-11-15T20:22:44.126Z,1.35
2022-11-15T20:25:30.205Z,1.20
2022-11-15T20:28:36.649Z,1.80
2022-11-15T20:31:22.235Z,1.10
2022-11-15T20:34:08.056Z,1.10
2022-11-15T20:36:53.543Z,1.17
2022-11-15T20:39:39.519Z,1.38
2022-11-15T20:42:25.066Z,1.80
2022-11-15T20:45:10.879Z,1.65
2022-11-15T20:47:57.831Z,1.35
2022-11-15T20:50:45.383Z,1.88
2022-11-15T20:53:31.754Z,1.20
2022-11-15T20:56:20.510Z,1.52
2022-11-15T20:59:06.217Z,1.25
2022-11-15T21:01:51.881Z,1.40
2022-11-15T21:04:37.143Z,1.70
2022-11-15T21:07:22.620Z,2.15
2022-11-15T21:10:28.013Z,1.42
2022-11-15T21:13:13.500Z,1.10
2022-11-15T21:15:59.094Z,1.38
2022-11-15T21:18:44.634Z,1.70
2022-11-15T21:21:30.105Z,1.25
2022-11-15T21:24:15.737Z,1.20
2022-11-15T21:27:01.647Z,1.20
2022-11-15T21:29:49.982Z,1.75
2022-11-15T21:32:35.870Z,1.50
2022-11-15T21:35:21.464Z,1.77
2022-11-15T21:38:07.216Z,1.35
2022-11-15T21:40:53.606Z,1.50
2022-11-15T21:43:39.441Z,1.48
2022-11-15T21:46:25.004Z,1.40
2022-11-15T21:49:10.519Z,1.10
2022-11-15T21:51:55.963Z,1.58
2022-11-15T21:54:44.413Z,1.30
2022-11-15T21:57:30.256Z,1.20
2022-11-15T22:00:35.434Z,1.50
2022-11-15T22:03:20.920Z,1.40
2022-11-15T22:06:06.832Z,1.27
2022-11-15T22:08:52.350Z,1.50
2022-11-15T22:11:38.017Z,1.50
2022-11-15T22:14:23.418Z,1.48
2022-11-15T22:17:08.962Z,1.45
2022-11-15T22:19:54.367Z,1.60
2022-11-15T22:22:39.945Z,1.30
2022-11-15T22:25:26.416Z,1.67
2022-11-15T22:28:12.137Z,1.30
2022-11-15T22:30:58.304Z,1.40
2022-11-15T22:33:43.789Z,1.40
2022-11-15T22:36:42.365Z,1.60
2022-11-15T22:39:32.407Z,1.48
2022-11-15T22:42:22.314Z,1.45
2022-11-15T22:45:09.843Z,1.73
2022-11-15T22:47:55.496Z,1.98
2022-11-15T22:50:41.492Z,1.83
2022-11-15T22:53:28.438Z,1.83
2022-11-15T22:56:19.065Z,1.75
2022-11-15T22:59:06.151Z,2.38
2022-11-15T23:01:51.642Z,1.80
2022-11-15T23:04:37.378Z,1.88
2022-11-15T23:07:23.029Z,2.05
2022-11-15T23:10:27.488Z,1.65
2022-11-15T23:13:16.822Z,1.67
2022-11-15T23:16:23.949Z,1.50
2022-11-15T23:19:11.594Z,1.73
2022-11-15T23:22:15.503Z,2.00
2022-11-15T23:25:00.980Z,1.65
2022-11-15T23:27:46.728Z,1.95
2022-11-15T23:30:54.706Z,1.90
2022-11-15T23:33:58.267Z,1.90
2022-11-15T23:36:44.378Z,1.65
2022-11-15T23:39:30.176Z,1.67
2022-11-15T23:42:19.963Z,1.70
2022-11-15T23:45:06.380Z,1.67
2022-11-15T23:47:55.736Z,2.30
2022-11-15T23:50:47.571Z,1.70
2022-11-15T23:53:33.317Z,1.75
2022-11-15T23:56:20.690Z,1.80
2022-11-15T23:59:06.782Z,1.88
